Portland, Missouri
Current Conditions -  °F | °C
As of 2:53 PM on Saturday 20 Dec 2014 (Local Time) from KJEF Reporting Station
Overcast Overcast  
Wind Chill:   Ceiling: 2000
Heat Index:   Visibility: 10mi
Dew Point:   Wind: 3mph
Humidity: 74%   Direction: 180°S
Pressure: 30.2"   Gusts: NA
Location:  38.71°N, 91.72°W
Report Text: KJEF 202053Z 18003KT 10SM OVC020 06/02 A3020 RMK AO2 SLP219 T00610017 56008
Loading
Personal Weather Stations






























Interactive Weather Map New forecast layout! Learn more

10-Day Weather Forecast

Advertisements
Track Severe Weather on mobile